PWSweather.com
Personal Weather Stations
Station Observations
RIORANCHO
Corrales Heights, Rio Rancho, NM 87124

Corrales HeightsRio Rancho, NM 87124

Lat: 35.241928, Lon: -106.647095

Elevation: 5297

Station Type: Davis Vantage Pro 2 Plus

http://www.weatherriorancho.com

High Low Average
Temperature 60.1°F15.6°C 33.2°F0.7°C 46.5°F8.1°C
Dew Point 28.2°F-2.1°C 17.5°F-8.1°C 22.5°F-5.3°C
Winds 16.1 mph 25.9 kmh Calm Calm 4.0 mph SE6.4 kmh SE
Wind Gusts 24.2 mph38.9 kmh -- 8.0 mph12.9 kmh
Humidity 53% 26% 40%
Pressure 30.04 in1017.3 mb 29.89 in1012.2 mb -
Precipitation 0.00 in0.0 mm - -
Hour Temp Dew Point Humidity Winds Wind Gusts Pressure Precip Precip Rate Daily Precip Total
12:00 AM 33.7°F0.9°C 18.4°F-7.6°C 53% Calm Calm 2.3 mph3.7 kmh 30.03 in1016.9 mb - 0.00 in0.0 mm 0.00 in0.0 mm
12:10 AM 33.7°F0.9°C 18.4°F-7.6°C 53% 1.2 mph WSW1.9 kmh WSW 3.5 mph5.6 kmh 30.03 in1016.9 mb - 0.00 in0.0 mm 0.00 in0.0 mm
12:20 AM 33.5°F0.8°C 18.6°F-7.4°C 54% 1.2 mph WSW1.9 kmh WSW 3.5 mph5.6 kmh 30.03 in1016.9 mb - 0.00 in0.0 mm 0.00 in0.0 mm
12:30 AM 33.5°F0.8°C 18.2°F-7.7°C 53% 1.2 mph W1.9 kmh W 4.6 mph7.4 kmh 30.03 in1016.9 mb - 0.00 in0.0 mm 0.00 in0.0 mm
12:40 AM 33.5°F0.8°C 18.2°F-7.7°C 53% 4.6 mph NW7.4 kmh NW 5.8 mph9.3 kmh 30.03 in1016.9 mb - 0.00 in0.0 mm 0.00 in0.0 mm
12:50 AM 33.6°F0.9°C 17.8°F-7.9°C 52% 3.5 mph NW5.6 kmh NW 6.9 mph11.1 kmh 30.03 in1016.9 mb - 0.00 in0.0 mm 0.00 in0.0 mm
01:00 AM 33.7°F0.9°C 17.9°F-7.8°C 52% 1.2 mph NW1.9 kmh NW 5.8 mph9.3 kmh 30.03 in1016.9 mb - 0.00 in0.0 mm 0.00 in0.0 mm
01:10 AM 33.7°F0.9°C 17.9°F-7.8°C 52% 2.3 mph NW3.7 kmh NW 3.5 mph5.6 kmh 30.04 in1017.3 mb - 0.00 in0.0 mm 0.00 in0.0 mm
01:20 AM 33.5°F0.8°C 17.7°F-7.9°C 52% 2.3 mph NW3.7 kmh NW 4.6 mph7.4 kmh 30.03 in1016.9 mb - 0.00 in0.0 mm 0.00 in0.0 mm
01:30 AM 33.7°F0.9°C 17.9°F-7.8°C 52% 2.3 mph NNW3.7 kmh NNW 8.1 mph13.0 kmh 30.03 in1016.9 mb - 0.00 in0.0 mm 0.00 in0.0 mm
01:40 AM 33.8°F1.0°C 18.5°F-7.5°C 53% 1.2 mph NNW1.9 kmh NNW 1.2 mph1.9 kmh 30.03 in1016.9 mb - 0.00 in0.0 mm 0.00 in0.0 mm
01:50 AM 33.7°F0.9°C 18.4°F-7.6°C 53% Calm Calm 3.5 mph5.6 kmh 30.03 in1016.9 mb - 0.00 in0.0 mm 0.00 in0.0 mm
02:00 AM 33.7°F0.9°C 18.4°F-7.6°C 53% 1.2 mph NNW1.9 kmh NNW 3.5 mph5.6 kmh 30.03 in1016.9 mb - 0.00 in0.0 mm 0.00 in0.0 mm
02:10 AM 33.7°F0.9°C 17.9°F-7.8°C 52% 1.2 mph NNW1.9 kmh NNW 2.3 mph3.7 kmh 30.03 in1016.9 mb - 0.00 in0.0 mm 0.00 in0.0 mm
02:20 AM 33.7°F0.9°C 17.9°F-7.8°C 52% 1.2 mph NNW1.9 kmh NNW 3.5 mph5.6 kmh 30.02 in1016.6 mb - 0.00 in0.0 mm 0.00 in0.0 mm
02:30 AM 33.5°F0.8°C 17.7°F-7.9°C 52% 2.3 mph NNW3.7 kmh NNW 4.6 mph7.4 kmh 30.02 in1016.6 mb - 0.00 in0.0 mm 0.00 in0.0 mm
02:40 AM 33.3°F0.7°C 17.5°F-8.1°C 52% 1.2 mph NNW1.9 kmh NNW 3.5 mph5.6 kmh 30.02 in1016.6 mb - 0.00 in0.0 mm 0.00 in0.0 mm
02:50 AM 33.2°F0.7°C 17.5°F-8.1°C 52% Calm Calm 2.3 mph3.7 kmh 30.03 in1016.9 mb - 0.00 in0.0 mm 0.00 in0.0 mm
03:00 AM 33.5°F0.8°C 17.7°F-7.9°C 52% 2.3 mph NNW3.7 kmh NNW 6.9 mph11.1 kmh 30.02 in1016.6 mb - 0.00 in0.0 mm 0.00 in0.0 mm
03:10 AM 33.7°F0.9°C 17.9°F-7.8°C 52% 3.5 mph N5.6 kmh N 6.9 mph11.1 kmh 30.02 in1016.6 mb - 0.00 in0.0 mm 0.00 in0.0 mm
03:20 AM 33.8°F1.0°C 18.0°F-7.8°C 52% 3.5 mph N5.6 kmh N 6.9 mph11.1 kmh 30.02 in1016.6 mb - 0.00 in0.0 mm 0.00 in0.0 mm
03:30 AM 33.8°F1.0°C 18.0°F-7.8°C 52% 8.1 mph N13.0 kmh N 11.5 mph18.5 kmh 30.02 in1016.6 mb - 0.00 in0.0 mm 0.00 in0.0 mm
03:40 AM 33.6°F0.9°C 17.8°F-7.9°C 52% 4.6 mph N7.4 kmh N 9.2 mph14.8 kmh 30.02 in1016.6 mb - 0.00 in0.0 mm 0.00 in0.0 mm
03:50 AM 33.5°F0.8°C 17.7°F-7.9°C 52% Calm Calm 1.2 mph1.9 kmh 30.02 in1016.6 mb - 0.00 in0.0 mm 0.00 in0.0 mm
04:00 AM 33.5°F0.8°C 17.7°F-7.9°C 52% 1.2 mph N1.9 kmh N 4.6 mph7.4 kmh 30.02 in1016.6 mb - 0.00 in0.0 mm 0.00 in0.0 mm
04:10 AM 33.5°F0.8°C 17.7°F-7.9°C 52% 1.2 mph N1.9 kmh N 5.8 mph9.3 kmh 30.02 in1016.6 mb - 0.00 in0.0 mm 0.00 in0.0 mm
04:20 AM 33.5°F0.8°C 17.7°F-7.9°C 52% 1.2 mph N1.9 kmh N 4.6 mph7.4 kmh 30.02 in1016.6 mb - 0.00 in0.0 mm 0.00 in0.0 mm
04:30 AM 33.4°F0.8°C 17.6°F-8.0°C 52% 5.8 mph N9.3 kmh N 8.1 mph13.0 kmh 30.01 in1016.3 mb - 0.00 in0.0 mm 0.00 in0.0 mm
04:40 AM 33.6°F0.9°C 17.8°F-7.9°C 52% 5.8 mph N9.3 kmh N 11.5 mph18.5 kmh 30.01 in1016.3 mb - 0.00 in0.0 mm 0.00 in0.0 mm
04:50 AM 33.5°F0.8°C 17.7°F-7.9°C 52% 6.9 mph N11.1 kmh N 11.5 mph18.5 kmh 30.01 in1016.3 mb - 0.00 in0.0 mm 0.00 in0.0 mm
05:00 AM 33.4°F0.8°C 18.1°F-7.7°C 53% 3.5 mph N5.6 kmh N 5.8 mph9.3 kmh 30.01 in1016.3 mb - 0.00 in0.0 mm 0.00 in0.0 mm
05:10 AM 33.7°F0.9°C 17.9°F-7.8°C 52% 2.3 mph N3.7 kmh N 9.2 mph14.8 kmh 30.01 in1016.3 mb - 0.00 in0.0 mm 0.00 in0.0 mm
05:20 AM 34.0°F1.1°C 17.7°F-7.9°C 51% 1.2 mph NNE1.9 kmh NNE 3.5 mph5.6 kmh 30.01 in1016.3 mb - 0.00 in0.0 mm 0.00 in0.0 mm
05:30 AM 34.0°F1.1°C 17.7°F-7.9°C 51% Calm Calm 2.3 mph3.7 kmh 30.02 in1016.6 mb - 0.00 in0.0 mm 0.00 in0.0 mm
05:40 AM 34.0°F1.1°C 18.2°F-7.7°C 52% 1.2 mph N1.9 kmh N 3.5 mph5.6 kmh 30.02 in1016.6 mb - 0.00 in0.0 mm 0.00 in0.0 mm
05:50 AM 34.0°F1.1°C 18.2°F-7.7°C 52% 4.6 mph N7.4 kmh N 10.4 mph16.7 kmh 30.01 in1016.3 mb - 0.00 in0.0 mm 0.00 in0.0 mm
06:00 AM 34.1°F1.2°C 18.3°F-7.6°C 52% 2.3 mph 3.7 kmh 4.6 mph7.4 kmh 30.01 in1016.3 mb - 0.00 in0.0 mm 0.00 in0.0 mm
06:10 AM 34.0°F1.1°C 18.2°F-7.7°C 52% 2.3 mph N3.7 kmh N 4.6 mph7.4 kmh 30.02 in1016.6 mb - 0.00 in0.0 mm 0.00 in0.0 mm
06:20 AM 34.1°F1.2°C 18.7°F-7.4°C 53% 4.6 mph NNE7.4 kmh NNE 9.2 mph14.8 kmh 30.02 in1016.6 mb - 0.00 in0.0 mm 0.00 in0.0 mm
06:30 AM 34.2°F1.2°C 18.3°F-7.6°C 52% 5.8 mph 9.3 kmh 8.1 mph13.0 kmh 30.02 in1016.6 mb - 0.00 in0.0 mm 0.00 in0.0 mm
06:40 AM 34.2°F1.2°C 18.8°F-7.3°C 53% 3.5 mph 5.6 kmh 8.1 mph13.0 kmh 30.02 in1016.6 mb - 0.00 in0.0 mm 0.00 in0.0 mm
06:50 AM 34.3°F1.3°C 18.5°F-7.5°C 52% 3.5 mph 5.6 kmh 9.2 mph14.8 kmh 30.02 in1016.6 mb - 0.00 in0.0 mm 0.00 in0.0 mm
07:00 AM 34.4°F1.3°C 18.6°F-7.4°C 52% 5.8 mph NNE9.3 kmh NNE 8.1 mph13.0 kmh 30.02 in1016.6 mb - 0.00 in0.0 mm 0.00 in0.0 mm
07:10 AM 34.5°F1.4°C 18.2°F-7.7°C 51% 3.5 mph N5.6 kmh N 8.1 mph13.0 kmh 30.02 in1016.6 mb - 0.00 in0.0 mm 0.00 in0.0 mm
07:20 AM 34.5°F1.4°C 18.2°F-7.7°C 51% 1.2 mph N1.9 kmh N 5.8 mph9.3 kmh 30.02 in1016.6 mb - 0.00 in0.0 mm 0.00 in0.0 mm
07:30 AM 34.5°F1.4°C 18.2°F-7.7°C 51% 3.5 mph N5.6 kmh N 6.9 mph11.1 kmh 30.01 in1016.3 mb - 0.00 in0.0 mm 0.00 in0.0 mm
07:40 AM 34.6°F1.4°C 18.8°F-7.3°C 52% 6.9 mph N11.1 kmh N 11.5 mph18.5 kmh 30.01 in1016.3 mb - 0.00 in0.0 mm 0.00 in0.0 mm
07:50 AM 34.5°F1.4°C 18.7°F-7.4°C 52% 2.3 mph N3.7 kmh N 6.9 mph11.1 kmh 30.02 in1016.6 mb - 0.00 in0.0 mm 0.00 in0.0 mm
08:00 AM 34.5°F1.4°C 18.7°F-7.4°C 52% 1.2 mph N1.9 kmh N 8.1 mph13.0 kmh 30.02 in1016.6 mb - 0.00 in0.0 mm 0.00 in0.0 mm
08:10 AM 34.7°F1.5°C 18.9°F-7.3°C 52% 6.9 mph NNE11.1 kmh NNE 10.4 mph16.7 kmh 30.02 in1016.6 mb - 0.00 in0.0 mm 0.00 in0.0 mm
08:20 AM 34.7°F1.5°C 18.9°F-7.3°C 52% 5.8 mph N9.3 kmh N 11.5 mph18.5 kmh 30.02 in1016.6 mb - 0.00 in0.0 mm 0.00 in0.0 mm
08:30 AM 35.3°F1.8°C 19.4°F-7.0°C 52% 1.2 mph N1.9 kmh N 8.1 mph13.0 kmh 30.02 in1016.6 mb - 0.00 in0.0 mm 0.00 in0.0 mm
08:40 AM 36.0°F2.2°C 19.1°F-7.2°C 50% Calm Calm 3.5 mph5.6 kmh 30.02 in1016.6 mb - 0.00 in0.0 mm 0.00 in0.0 mm
08:50 AM 36.5°F2.5°C 19.6°F-6.9°C 50% Calm Calm -- 30.03 in1016.9 mb - 0.00 in0.0 mm 0.00 in0.0 mm
09:00 AM 36.9°F2.7°C 19.5°F-6.9°C 49% 1.2 mph N1.9 kmh N 4.6 mph7.4 kmh 30.03 in1016.9 mb - 0.00 in0.0 mm 0.00 in0.0 mm
09:10 AM 37.6°F3.1°C 19.7°F-6.8°C 48% 3.5 mph N5.6 kmh N 4.6 mph7.4 kmh 30.03 in1016.9 mb - 0.00 in0.0 mm 0.00 in0.0 mm
09:20 AM 38.3°F3.5°C 20.3°F-6.5°C 48% 3.5 mph N5.6 kmh N 5.8 mph9.3 kmh 30.03 in1016.9 mb - 0.00 in0.0 mm 0.00 in0.0 mm
09:30 AM 39.4°F4.1°C 20.3°F-6.5°C 46% 2.3 mph N3.7 kmh N 8.1 mph13.0 kmh 30.04 in1017.3 mb - 0.00 in0.0 mm 0.00 in0.0 mm
09:40 AM 40.0°F4.4°C 20.3°F-6.5°C 45% 2.3 mph N3.7 kmh N 5.8 mph9.3 kmh 30.04 in1017.3 mb - 0.00 in0.0 mm 0.00 in0.0 mm
09:50 AM 40.9°F4.9°C 20.7°F-6.3°C 44% 1.2 mph N1.9 kmh N 6.9 mph11.1 kmh 30.04 in1017.3 mb - 0.00 in0.0 mm 0.00 in0.0 mm
10:00 AM 41.9°F5.5°C 20.4°F-6.4°C 42% 2.3 mph NNE3.7 kmh NNE 4.6 mph7.4 kmh 30.04 in1017.3 mb - 0.00 in0.0 mm 0.00 in0.0 mm
10:10 AM 42.4°F5.8°C 20.9°F-6.2°C 42% 4.6 mph NE7.4 kmh NE 6.9 mph11.1 kmh 30.04 in1017.3 mb - 0.00 in0.0 mm 0.00 in0.0 mm
10:20 AM 42.8°F6.0°C 20.7°F-6.3°C 41% 1.2 mph NE1.9 kmh NE 5.8 mph9.3 kmh 30.04 in1017.3 mb - 0.00 in0.0 mm 0.00 in0.0 mm
10:30 AM 43.8°F6.6°C 21.0°F-6.1°C 40% Calm Calm 2.3 mph3.7 kmh 30.04 in1017.3 mb - 0.00 in0.0 mm 0.00 in0.0 mm
10:40 AM 44.4°F6.9°C 21.0°F-6.1°C 39% 2.3 mph NE3.7 kmh NE 8.1 mph13.0 kmh 30.03 in1016.9 mb - 0.00 in0.0 mm 0.00 in0.0 mm
10:50 AM 45.6°F7.6°C 22.0°F-5.6°C 39% Calm Calm -- 30.03 in1016.9 mb - 0.00 in0.0 mm 0.00 in0.0 mm
11:00 AM 45.8°F7.7°C 21.6°F-5.8°C 38% Calm Calm -- 30.03 in1016.9 mb - 0.00 in0.0 mm 0.00 in0.0 mm
11:10 AM 46.5°F8.1°C 22.3°F-5.4°C 38% Calm Calm 1.2 mph1.9 kmh 30.03 in1016.9 mb - 0.00 in0.0 mm 0.00 in0.0 mm
11:20 AM 47.2°F8.4°C 22.9°F-5.1°C 38% Calm Calm -- 30.03 in1016.9 mb - 0.00 in0.0 mm 0.00 in0.0 mm
11:30 AM 48.2°F9.0°C 22.5°F-5.3°C 36% Calm Calm 2.3 mph3.7 kmh 30.02 in1016.6 mb - 0.00 in0.0 mm 0.00 in0.0 mm
11:40 AM 48.8°F9.3°C 23.0°F-5.0°C 36% 4.6 mph SE7.4 kmh SE 15.0 mph24.1 kmh 30.02 in1016.6 mb - 0.00 in0.0 mm 0.00 in0.0 mm
11:50 AM 49.1°F9.5°C 23.3°F-4.8°C 36% 1.2 mph SE1.9 kmh SE 3.5 mph5.6 kmh 30.02 in1016.6 mb - 0.00 in0.0 mm 0.00 in0.0 mm
12:00 PM 50.0°F10.0°C 24.0°F-4.4°C 36% 1.2 mph ESE1.9 kmh ESE 3.5 mph5.6 kmh 30.02 in1016.6 mb - 0.00 in0.0 mm 0.00 in0.0 mm
12:10 PM 50.7°F10.4°C 24.7°F-4.1°C 36% Calm Calm 2.3 mph3.7 kmh 30.01 in1016.3 mb - 0.00 in0.0 mm 0.00 in0.0 mm
12:20 PM 52.1°F11.2°C 25.3°F-3.7°C 35% 4.6 mph SE7.4 kmh SE 12.7 mph20.4 kmh 30.01 in1016.3 mb - 0.00 in0.0 mm 0.00 in0.0 mm
12:30 PM 52.2°F11.2°C 25.3°F-3.7°C 35% 1.2 mph SE1.9 kmh SE 5.8 mph9.3 kmh 30.00 in1015.9 mb - 0.00 in0.0 mm 0.00 in0.0 mm
12:40 PM 53.2°F11.8°C 25.5°F-3.6°C 34% 2.3 mph ESE3.7 kmh ESE 6.9 mph11.1 kmh 30.00 in1015.9 mb - 0.00 in0.0 mm 0.00 in0.0 mm
12:50 PM 53.1°F11.7°C 25.4°F-3.7°C 34% 2.3 mph SSE3.7 kmh SSE 3.5 mph5.6 kmh 29.99 in1015.6 mb - 0.00 in0.0 mm 0.00 in0.0 mm
01:00 PM 54.0°F12.2°C 26.2°F-3.2°C 34% 4.6 mph ESE7.4 kmh ESE 6.9 mph11.1 kmh 29.98 in1015.2 mb - 0.00 in0.0 mm 0.00 in0.0 mm
01:10 PM 54.3°F12.4°C 26.5°F-3.1°C 34% 5.8 mph SE9.3 kmh SE 9.2 mph14.8 kmh 29.98 in1015.2 mb - 0.00 in0.0 mm 0.00 in0.0 mm
01:20 PM 55.1°F12.8°C 26.5°F-3.1°C 33% 4.6 mph SE7.4 kmh SE 5.8 mph9.3 kmh 29.97 in1014.9 mb - 0.00 in0.0 mm 0.00 in0.0 mm
01:30 PM 55.0°F12.8°C 26.4°F-3.1°C 33% 2.3 mph SSE3.7 kmh SSE 8.1 mph13.0 kmh 29.96 in1014.6 mb - 0.00 in0.0 mm 0.00 in0.0 mm
01:40 PM 56.2°F13.4°C 26.7°F-2.9°C 32% 4.6 mph SE7.4 kmh SE 9.2 mph14.8 kmh 29.95 in1014.2 mb - 0.00 in0.0 mm 0.00 in0.0 mm
01:50 PM 56.9°F13.8°C 27.3°F-2.6°C 32% 1.2 mph SE1.9 kmh SE 4.6 mph7.4 kmh 29.94 in1013.9 mb - 0.00 in0.0 mm 0.00 in0.0 mm
02:00 PM 58.3°F14.6°C 27.8°F-2.3°C 31% 5.8 mph SSE9.3 kmh SSE 9.2 mph14.8 kmh 29.93 in1013.5 mb - 0.00 in0.0 mm 0.00 in0.0 mm
02:10 PM 58.5°F14.7°C 28.0°F-2.2°C 31% 8.1 mph SE13.0 kmh SE 17.3 mph27.8 kmh 29.93 in1013.5 mb - 0.00 in0.0 mm 0.00 in0.0 mm
02:20 PM 58.8°F14.9°C 28.2°F-2.1°C 31% 8.1 mph SE13.0 kmh SE 19.6 mph31.5 kmh 29.92 in1013.2 mb - 0.00 in0.0 mm 0.00 in0.0 mm
02:30 PM 59.3°F15.2°C 27.8°F-2.3°C 30% 4.6 mph SE7.4 kmh SE 11.5 mph18.5 kmh 29.91 in1012.9 mb - 0.00 in0.0 mm 0.00 in0.0 mm
02:40 PM 58.7°F14.8°C 27.3°F-2.6°C 30% 8.1 mph SSE13.0 kmh SSE 19.6 mph31.5 kmh 29.91 in1012.9 mb - 0.00 in0.0 mm 0.00 in0.0 mm
02:50 PM 58.7°F14.8°C 25.6°F-3.6°C 28% 8.1 mph SSE13.0 kmh SSE 18.4 mph29.6 kmh 29.91 in1012.9 mb - 0.00 in0.0 mm 0.00 in0.0 mm
03:00 PM 58.7°F14.8°C 26.5°F-3.1°C 29% 10.4 mph S16.7 kmh S 16.1 mph25.9 kmh 29.90 in1012.5 mb - 0.00 in0.0 mm 0.00 in0.0 mm
03:10 PM 58.8°F14.9°C 25.8°F-3.4°C 28% 11.5 mph SSE18.5 kmh SSE 17.3 mph27.8 kmh 29.89 in1012.2 mb - 0.00 in0.0 mm 0.00 in0.0 mm
03:20 PM 58.9°F14.9°C 25.8°F-3.4°C 28% 8.1 mph SSE13.0 kmh SSE 9.2 mph14.8 kmh 29.90 in1012.5 mb - 0.00 in0.0 mm 0.00 in0.0 mm
03:30 PM 59.1°F15.1°C 25.1°F-3.8°C 27% 4.6 mph SSE7.4 kmh SSE 17.3 mph27.8 kmh 29.90 in1012.5 mb - 0.00 in0.0 mm 0.00 in0.0 mm
03:40 PM 59.8°F15.4°C 25.8°F-3.4°C 27% 10.4 mph SSE16.7 kmh SSE 18.4 mph29.6 kmh 29.89 in1012.2 mb - 0.00 in0.0 mm 0.00 in0.0 mm
03:50 PM 59.1°F15.1°C 25.1°F-3.8°C 27% 9.2 mph SE14.8 kmh SE 13.8 mph22.2 kmh 29.90 in1012.5 mb - 0.00 in0.0 mm 0.00 in0.0 mm
04:00 PM 59.7°F15.4°C 25.6°F-3.6°C 27% 10.4 mph ESE16.7 kmh ESE 13.8 mph22.2 kmh 29.89 in1012.2 mb - 0.00 in0.0 mm 0.00 in0.0 mm
04:10 PM 59.7°F15.4°C 25.6°F-3.6°C 27% 4.6 mph SSE7.4 kmh SSE 11.5 mph18.5 kmh 29.90 in1012.5 mb - 0.00 in0.0 mm 0.00 in0.0 mm
04:20 PM 60.1°F15.6°C 25.1°F-3.8°C 26% 11.5 mph SSE18.5 kmh SSE 18.4 mph29.6 kmh 29.90 in1012.5 mb - 0.00 in0.0 mm 0.00 in0.0 mm
04:30 PM 59.7°F15.4°C 25.6°F-3.6°C 27% 8.1 mph SE13.0 kmh SE 15.0 mph24.1 kmh 29.89 in1012.2 mb - 0.00 in0.0 mm 0.00 in0.0 mm
04:40 PM 60.1°F15.6°C 26.0°F-3.3°C 27% 9.2 mph SE14.8 kmh SE 19.6 mph31.5 kmh 29.89 in1012.2 mb - 0.00 in0.0 mm 0.00 in0.0 mm
04:50 PM 59.8°F15.4°C 25.7°F-3.5°C 27% 8.1 mph SSE13.0 kmh SSE 11.5 mph18.5 kmh 29.89 in1012.2 mb - 0.00 in0.0 mm 0.00 in0.0 mm
05:00 PM 59.6°F15.3°C 25.5°F-3.6°C 27% 8.1 mph SE13.0 kmh SE 19.6 mph31.5 kmh 29.89 in1012.2 mb - 0.00 in0.0 mm 0.00 in0.0 mm
05:10 PM 59.4°F15.2°C 26.3°F-3.2°C 28% 6.9 mph SE11.1 kmh SE 11.5 mph18.5 kmh 29.89 in1012.2 mb - 0.00 in0.0 mm 0.00 in0.0 mm
05:20 PM 58.8°F14.9°C 25.8°F-3.4°C 28% 10.4 mph SE16.7 kmh SE 13.8 mph22.2 kmh 29.89 in1012.2 mb - 0.00 in0.0 mm 0.00 in0.0 mm
05:30 PM 58.2°F14.6°C 26.1°F-3.3°C 29% 11.5 mph SE18.5 kmh SE 19.6 mph31.5 kmh 29.90 in1012.5 mb - 0.00 in0.0 mm 0.00 in0.0 mm
05:40 PM 57.4°F14.1°C 25.4°F-3.7°C 29% 16.1 mph SE25.9 kmh SE 24.2 mph38.9 kmh 29.90 in1012.5 mb - 0.00 in0.0 mm 0.00 in0.0 mm
05:50 PM 57.1°F13.9°C 25.1°F-3.8°C 29% 11.5 mph SE18.5 kmh SE 20.7 mph33.3 kmh 29.91 in1012.9 mb - 0.00 in0.0 mm 0.00 in0.0 mm
06:00 PM 57.0°F13.9°C 25.0°F-3.9°C 29% 13.8 mph SE22.2 kmh SE 19.6 mph31.5 kmh 29.91 in1012.9 mb - 0.00 in0.0 mm 0.00 in0.0 mm
06:10 PM 56.7°F13.7°C 25.5°F-3.6°C 30% 9.2 mph SE14.8 kmh SE 17.3 mph27.8 kmh 29.91 in1012.9 mb - 0.00 in0.0 mm 0.00 in0.0 mm
06:20 PM 56.4°F13.6°C 25.3°F-3.7°C 30% 6.9 mph SE11.1 kmh SE 15.0 mph24.1 kmh 29.92 in1013.2 mb - 0.00 in0.0 mm 0.00 in0.0 mm
06:30 PM 55.9°F13.3°C 24.9°F-3.9°C 30% 10.4 mph SE16.7 kmh SE 23.0 mph37.0 kmh 29.92 in1013.2 mb - 0.00 in0.0 mm 0.00 in0.0 mm
06:40 PM 55.6°F13.1°C 25.4°F-3.7°C 31% 4.6 mph SE7.4 kmh SE 10.4 mph16.7 kmh 29.92 in1013.2 mb - 0.00 in0.0 mm 0.00 in0.0 mm
06:50 PM 55.4°F13.0°C 25.2°F-3.8°C 31% 4.6 mph SE7.4 kmh SE 15.0 mph24.1 kmh 29.93 in1013.5 mb - 0.00 in0.0 mm 0.00 in0.0 mm
07:00 PM 55.3°F12.9°C 25.1°F-3.8°C 31% 4.6 mph SE7.4 kmh SE 13.8 mph22.2 kmh 29.93 in1013.5 mb - 0.00 in0.0 mm 0.00 in0.0 mm
07:10 PM 55.1°F12.8°C 25.0°F-3.9°C 31% 8.1 mph SE13.0 kmh SE 11.5 mph18.5 kmh 29.93 in1013.5 mb - 0.00 in0.0 mm 0.00 in0.0 mm
07:20 PM 54.9°F12.7°C 25.5°F-3.6°C 32% 8.1 mph SE13.0 kmh SE 15.0 mph24.1 kmh 29.93 in1013.5 mb - 0.00 in0.0 mm 0.00 in0.0 mm
07:30 PM 54.8°F12.7°C 25.5°F-3.6°C 32% 2.3 mph SSE3.7 kmh SSE 3.5 mph5.6 kmh 29.94 in1013.9 mb - 0.00 in0.0 mm 0.00 in0.0 mm
07:40 PM 54.4°F12.4°C 25.1°F-3.8°C 32% 4.6 mph SE7.4 kmh SE 8.1 mph13.0 kmh 29.94 in1013.9 mb - 0.00 in0.0 mm 0.00 in0.0 mm
07:50 PM 54.4°F12.4°C 25.1°F-3.8°C 32% 2.3 mph SSE3.7 kmh SSE 11.5 mph18.5 kmh 29.94 in1013.9 mb - 0.00 in0.0 mm 0.00 in0.0 mm
08:00 PM 54.3°F12.4°C 25.0°F-3.9°C 32% 1.2 mph SE1.9 kmh SE 3.5 mph5.6 kmh 29.95 in1014.2 mb - 0.00 in0.0 mm 0.00 in0.0 mm
08:10 PM 54.2°F12.3°C 25.7°F-3.5°C 33% 1.2 mph SSE1.9 kmh SSE 8.1 mph13.0 kmh 29.95 in1014.2 mb - 0.00 in0.0 mm 0.00 in0.0 mm
08:20 PM 54.4°F12.4°C 25.9°F-3.4°C 33% Calm Calm 3.5 mph5.6 kmh 29.96 in1014.6 mb - 0.00 in0.0 mm 0.00 in0.0 mm
08:30 PM 54.2°F12.3°C 25.7°F-3.5°C 33% 2.3 mph S3.7 kmh S 9.2 mph14.8 kmh 29.96 in1014.6 mb - 0.00 in0.0 mm 0.00 in0.0 mm
08:40 PM 54.0°F12.2°C 26.2°F-3.2°C 34% 1.2 mph S1.9 kmh S 9.2 mph14.8 kmh 29.96 in1014.6 mb - 0.00 in0.0 mm 0.00 in0.0 mm
08:50 PM 53.7°F12.1°C 26.0°F-3.3°C 34% 1.2 mph S1.9 kmh S 3.5 mph5.6 kmh 29.96 in1014.6 mb - 0.00 in0.0 mm 0.00 in0.0 mm
09:00 PM 53.7°F12.1°C 26.0°F-3.3°C 34% 1.2 mph SSE1.9 kmh SSE 3.5 mph5.6 kmh 29.97 in1014.9 mb - 0.00 in0.0 mm 0.00 in0.0 mm
09:10 PM 53.6°F12.0°C 25.8°F-3.4°C 34% 1.2 mph S1.9 kmh S 11.5 mph18.5 kmh 29.97 in1014.9 mb - 0.00 in0.0 mm 0.00 in0.0 mm
09:20 PM 53.5°F11.9°C 25.8°F-3.4°C 34% 5.8 mph SSE9.3 kmh SSE 9.2 mph14.8 kmh 29.98 in1015.2 mb - 0.00 in0.0 mm 0.00 in0.0 mm
09:30 PM 53.3°F11.8°C 26.3°F-3.2°C 35% 1.2 mph SSE1.9 kmh SSE 3.5 mph5.6 kmh 29.98 in1015.2 mb - 0.00 in0.0 mm 0.00 in0.0 mm
09:40 PM 53.1°F11.7°C 26.1°F-3.3°C 35% 1.2 mph SSE1.9 kmh SSE 5.8 mph9.3 kmh 29.98 in1015.2 mb - 0.00 in0.0 mm 0.00 in0.0 mm
09:50 PM 52.9°F11.6°C 26.0°F-3.3°C 35% 5.8 mph SSE9.3 kmh SSE 12.7 mph20.4 kmh 29.99 in1015.6 mb - 0.00 in0.0 mm 0.00 in0.0 mm
10:00 PM 52.6°F11.4°C 25.7°F-3.5°C 35% 1.2 mph SSE1.9 kmh SSE 3.5 mph5.6 kmh 29.99 in1015.6 mb - 0.00 in0.0 mm 0.00 in0.0 mm
10:10 PM 52.4°F11.3°C 25.5°F-3.6°C 35% 5.8 mph SSE9.3 kmh SSE 12.7 mph20.4 kmh 30.00 in1015.9 mb - 0.00 in0.0 mm 0.00 in0.0 mm
10:20 PM 52.3°F11.3°C 25.5°F-3.6°C 35% 2.3 mph SE3.7 kmh SE 9.2 mph14.8 kmh 30.00 in1015.9 mb - 0.00 in0.0 mm 0.00 in0.0 mm
10:30 PM 51.8°F11.0°C 25.0°F-3.9°C 35% 1.2 mph SSE1.9 kmh SSE 3.5 mph5.6 kmh 30.00 in1015.9 mb - 0.00 in0.0 mm 0.00 in0.0 mm
10:40 PM 51.5°F10.8°C 25.4°F-3.7°C 36% 1.2 mph S1.9 kmh S 3.5 mph5.6 kmh 30.01 in1016.3 mb - 0.00 in0.0 mm 0.00 in0.0 mm
10:50 PM 51.5°F10.8°C 25.4°F-3.7°C 36% Calm Calm 2.3 mph3.7 kmh 30.01 in1016.3 mb - 0.00 in0.0 mm 0.00 in0.0 mm
11:00 PM 51.9°F11.1°C 25.8°F-3.4°C 36% 1.2 mph S1.9 kmh S 2.3 mph3.7 kmh 30.01 in1016.3 mb - 0.00 in0.0 mm 0.00 in0.0 mm
11:10 PM 52.1°F11.2°C 25.3°F-3.7°C 35% 1.2 mph S1.9 kmh S 4.6 mph7.4 kmh 30.01 in1016.3 mb - 0.00 in0.0 mm 0.00 in0.0 mm
11:20 PM 52.3°F11.3°C 24.7°F-4.1°C 34% Calm Calm 3.5 mph5.6 kmh 30.01 in1016.3 mb - 0.00 in0.0 mm 0.00 in0.0 mm
11:30 PM 52.1°F11.2°C 25.3°F-3.7°C 35% Calm Calm 1.2 mph1.9 kmh 30.02 in1016.6 mb - 0.00 in0.0 mm 0.00 in0.0 mm
11:40 PM 51.7°F10.9°C 24.9°F-3.9°C 35% Calm Calm -- 30.02 in1016.6 mb - 0.00 in0.0 mm 0.00 in0.0 mm
11:50 PM 51.4°F10.8°C 24.6°F-4.1°C 35% Calm Calm -- 30.02 in1016.6 mb - 0.00 in0.0 mm 0.00 in0.0 mm